sensor_id;sensor_type;location;lat;lon;timestamp;P1;durP1;ratioP1;P2;durP2;ratioP2
177;SDS011;77;48.792;9.032;2022-08-21T00:00:03;9.13;;;3.50;;
177;SDS011;77;48.792;9.032;2022-08-21T00:02:29;5.13;;;3.30;;
177;SDS011;77;48.792;9.032;2022-08-21T00:04:54;6.13;;;3.20;;
177;SDS011;77;48.792;9.032;2022-08-21T00:07:21;6.17;;;3.40;;
177;SDS011;77;48.792;9.032;2022-08-21T00:09:46;5.17;;;3.17;;
177;SDS011;77;48.792;9.032;2022-08-21T00:12:12;6.13;;;3.43;;
177;SDS011;77;48.792;9.032;2022-08-21T00:14:37;4.63;;;3.43;;
177;SDS011;77;48.792;9.032;2022-08-21T00:17:03;8.60;;;3.40;;
177;SDS011;77;48.792;9.032;2022-08-21T00:19:28;7.23;;;3.80;;
177;SDS011;77;48.792;9.032;2022-08-21T00:21:53;5.20;;;3.00;;
177;SDS011;77;48.792;9.032;2022-08-21T00:24:21;6.00;;;3.50;;
177;SDS011;77;48.792;9.032;2022-08-21T00:26:46;5.17;;;3.47;;
177;SDS011;77;48.792;9.032;2022-08-21T00:29:12;5.80;;;3.37;;
177;SDS011;77;48.792;9.032;2022-08-21T00:31:37;10.30;;;3.53;;
177;SDS011;77;48.792;9.032;2022-08-21T00:34:03;6.13;;;3.20;;
177;SDS011;77;48.792;9.032;2022-08-21T00:36:28;7.50;;;3.60;;
177;SDS011;77;48.792;9.032;2022-08-21T00:38:54;5.70;;;3.60;;
177;SDS011;77;48.792;9.032;2022-08-21T00:41:21;5.33;;;3.63;;
177;SDS011;77;48.792;9.032;2022-08-21T00:43:46;5.63;;;3.50;;
177;SDS011;77;48.792;9.032;2022-08-21T00:46:11;6.67;;;3.33;;
177;SDS011;77;48.792;9.032;2022-08-21T00:48:36;4.87;;;3.40;;
177;SDS011;77;48.792;9.032;2022-08-21T00:51:04;7.00;;;3.50;;
177;SDS011;77;48.792;9.032;2022-08-21T00:53:30;6.07;;;3.63;;
177;SDS011;77;48.792;9.032;2022-08-21T00:55:55;5.60;;;3.40;;
177;SDS011;77;48.792;9.032;2022-08-21T00:58:22;6.97;;;3.43;;
177;SDS011;77;48.792;9.032;2022-08-21T01:00:48;5.10;;;3.30;;
177;SDS011;77;48.792;9.032;2022-08-21T01:03:15;5.67;;;3.60;;
177;SDS011;77;48.792;9.032;2022-08-21T01:05:41;6.83;;;3.83;;
177;SDS011;77;48.792;9.032;2022-08-21T01:08:07;5.40;;;3.50;;
177;SDS011;77;48.792;9.032;2022-08-21T01:10:33;6.43;;;3.60;;
177;SDS011;77;48.792;9.032;2022-08-21T01:12:59;6.60;;;3.67;;
177;SDS011;77;48.792;9.032;2022-08-21T01:15:26;7.03;;;3.60;;
177;SDS011;77;48.792;9.032;2022-08-21T01:17:52;5.93;;;3.70;;
177;SDS011;77;48.792;9.032;2022-08-21T01:20:18;8.73;;;3.53;;
177;SDS011;77;48.792;9.032;2022-08-21T01:22:44;7.90;;;4.13;;
177;SDS011;77;48.792;9.032;2022-08-21T01:25:12;6.87;;;3.60;;
177;SDS011;77;48.792;9.032;2022-08-21T01:27:37;6.33;;;3.80;;
177;SDS011;77;48.792;9.032;2022-08-21T01:30:04;5.37;;;3.87;;
177;SDS011;77;48.792;9.032;2022-08-21T01:32:32;5.70;;;3.77;;
177;SDS011;77;48.792;9.032;2022-08-21T01:34:58;5.67;;;3.80;;
177;SDS011;77;48.792;9.032;2022-08-21T01:37:23;6.83;;;3.80;;
177;SDS011;77;48.792;9.032;2022-08-21T01:39:50;9.37;;;3.67;;
177;SDS011;77;48.792;9.032;2022-08-21T01:42:15;5.67;;;3.70;;
177;SDS011;77;48.792;9.032;2022-08-21T01:44:40;5.77;;;3.50;;
177;SDS011;77;48.792;9.032;2022-08-21T01:47:07;5.80;;;3.70;;
177;SDS011;77;48.792;9.032;2022-08-21T01:49:33;6.50;;;3.67;;
177;SDS011;77;48.792;9.032;2022-08-21T01:51:58;6.67;;;4.17;;
177;SDS011;77;48.792;9.032;2022-08-21T01:54:23;5.27;;;3.73;;
177;SDS011;77;48.792;9.032;2022-08-21T01:56:51;6.03;;;3.90;;
177;SDS011;77;48.792;9.032;2022-08-21T01:59:16;7.90;;;4.17;;
177;SDS011;77;48.792;9.032;2022-08-21T02:01:42;6.40;;;3.90;;
177;SDS011;77;48.792;9.032;2022-08-21T02:04:07;5.87;;;3.50;;
177;SDS011;77;48.792;9.032;2022-08-21T02:06:33;5.33;;;3.50;;
177;SDS011;77;48.792;9.032;2022-08-21T02:08:58;6.83;;;4.20;;
177;SDS011;77;48.792;9.032;2022-08-21T02:11:24;9.23;;;3.90;;
177;SDS011;77;48.792;9.032;2022-08-21T02:13:50;6.30;;;3.53;;
177;SDS011;77;48.792;9.032;2022-08-21T02:16:16;6.80;;;3.80;;
177;SDS011;77;48.792;9.032;2022-08-21T02:18:41;5.40;;;3.83;;
177;SDS011;77;48.792;9.032;2022-08-21T02:21:06;7.57;;;4.07;;
177;SDS011;77;48.792;9.032;2022-08-21T02:23:32;7.13;;;4.10;;
177;SDS011;77;48.792;9.032;2022-08-21T02:25:58;5.80;;;3.90;;
177;SDS011;77;48.792;9.032;2022-08-21T02:28:23;6.03;;;3.77;;
177;SDS011;77;48.792;9.032;2022-08-21T02:30:50;6.37;;;4.10;;
177;SDS011;77;48.792;9.032;2022-08-21T02:33:16;7.70;;;4.10;;
177;SDS011;77;48.792;9.032;2022-08-21T02:35:42;7.10;;;3.80;;
177;SDS011;77;48.792;9.032;2022-08-21T02:38:09;6.30;;;3.83;;
177;SDS011;77;48.792;9.032;2022-08-21T02:40:35;7.27;;;4.17;;
177;SDS011;77;48.792;9.032;2022-08-21T02:43:01;5.97;;;3.63;;
177;SDS011;77;48.792;9.032;2022-08-21T02:45:27;7.20;;;3.93;;
177;SDS011;77;48.792;9.032;2022-08-21T02:47:54;5.80;;;3.80;;
177;SDS011;77;48.792;9.032;2022-08-21T02:50:21;7.63;;;3.97;;
177;SDS011;77;48.792;9.032;2022-08-21T02:52:47;5.97;;;3.90;;
177;SDS011;77;48.792;9.032;2022-08-21T02:55:13;5.37;;;3.80;;
177;SDS011;77;48.792;9.032;2022-08-21T02:57:38;7.30;;;4.00;;
177;SDS011;77;48.792;9.032;2022-08-21T03:00:04;7.23;;;4.37;;
177;SDS011;77;48.792;9.032;2022-08-21T03:02:30;6.33;;;4.13;;
177;SDS011;77;48.792;9.032;2022-08-21T03:04:56;7.07;;;4.00;;
177;SDS011;77;48.792;9.032;2022-08-21T03:07:22;8.00;;;4.20;;
177;SDS011;77;48.792;9.032;2022-08-21T03:09:47;8.27;;;4.10;;
177;SDS011;77;48.792;9.032;2022-08-21T03:12:12;5.63;;;4.13;;
177;SDS011;77;48.792;9.032;2022-08-21T03:14:37;6.83;;;4.40;;
177;SDS011;77;48.792;9.032;2022-08-21T03:17:02;7.30;;;3.80;;
177;SDS011;77;48.792;9.032;2022-08-21T03:19:28;7.00;;;4.00;;
177;SDS011;77;48.792;9.032;2022-08-21T03:21:54;7.27;;;4.30;;
177;SDS011;77;48.792;9.032;2022-08-21T03:24:20;8.73;;;4.37;;
177;SDS011;77;48.792;9.032;2022-08-21T03:26:45;6.10;;;4.30;;
177;SDS011;77;48.792;9.032;2022-08-21T03:29:10;6.03;;;3.90;;
177;SDS011;77;48.792;9.032;2022-08-21T03:31:35;7.80;;;4.20;;
177;SDS011;77;48.792;9.032;2022-08-21T03:34:01;6.93;;;4.03;;
177;SDS011;77;48.792;9.032;2022-08-21T03:36:26;6.23;;;4.03;;
177;SDS011;77;48.792;9.032;2022-08-21T03:38:52;6.10;;;4.00;;
177;SDS011;77;48.792;9.032;2022-08-21T03:41:18;6.97;;;4.47;;
177;SDS011;77;48.792;9.032;2022-08-21T03:43:43;6.67;;;4.37;;
177;SDS011;77;48.792;9.032;2022-08-21T03:46:08;7.90;;;4.20;;
177;SDS011;77;48.792;9.032;2022-08-21T03:48:35;6.27;;;4.13;;
177;SDS011;77;48.792;9.032;2022-08-21T03:51:01;5.90;;;4.30;;
177;SDS011;77;48.792;9.032;2022-08-21T03:53:26;5.97;;;4.40;;
177;SDS011;77;48.792;9.032;2022-08-21T03:55:53;6.97;;;4.37;;
177;SDS011;77;48.792;9.032;2022-08-21T03:58:20;6.70;;;4.43;;
177;SDS011;77;48.792;9.032;2022-08-21T04:00:46;7.47;;;4.80;;
177;SDS011;77;48.792;9.032;2022-08-21T04:03:12;9.93;;;4.40;;
177;SDS011;77;48.792;9.032;2022-08-21T04:05:37;6.10;;;4.30;;
177;SDS011;77;48.792;9.032;2022-08-21T04:08:03;9.27;;;4.43;;
177;SDS011;77;48.792;9.032;2022-08-21T04:10:30;7.37;;;4.33;;
177;SDS011;77;48.792;9.032;2022-08-21T04:12:57;6.80;;;4.87;;
177;SDS011;77;48.792;9.032;2022-08-21T04:15:23;7.90;;;4.40;;
177;SDS011;77;48.792;9.032;2022-08-21T04:17:48;7.93;;;4.53;;
177;SDS011;77;48.792;9.032;2022-08-21T04:20:13;7.37;;;4.60;;
177;SDS011;77;48.792;9.032;2022-08-21T04:22:39;6.33;;;4.60;;
177;SDS011;77;48.792;9.032;2022-08-21T04:25:04;7.60;;;4.50;;
177;SDS011;77;48.792;9.032;2022-08-21T04:27:30;7.97;;;4.90;;
177;SDS011;77;48.792;9.032;2022-08-21T04:29:56;9.63;;;5.20;;
177;SDS011;77;48.792;9.032;2022-08-21T04:32:22;9.33;;;5.50;;
177;SDS011;77;48.792;9.032;2022-08-21T04:34:47;8.83;;;5.70;;
177;SDS011;77;48.792;9.032;2022-08-21T04:37:13;9.33;;;5.43;;
177;SDS011;77;48.792;9.032;2022-08-21T04:39:38;9.00;;;5.40;;
177;SDS011;77;48.792;9.032;2022-08-21T04:42:03;8.00;;;5.27;;
177;SDS011;77;48.792;9.032;2022-08-21T04:44:29;8.67;;;5.67;;
177;SDS011;77;48.792;9.032;2022-08-21T04:46:55;6.80;;;5.00;;
177;SDS011;77;48.792;9.032;2022-08-21T04:49:21;10.13;;;4.90;;
177;SDS011;77;48.792;9.032;2022-08-21T04:51:46;6.20;;;4.53;;
177;SDS011;77;48.792;9.032;2022-08-21T04:54:12;5.50;;;4.20;;
177;SDS011;77;48.792;9.032;2022-08-21T04:56:39;9.23;;;4.97;;
177;SDS011;77;48.792;9.032;2022-08-21T04:59:06;8.23;;;4.90;;
177;SDS011;77;48.792;9.032;2022-08-21T05:01:35;8.40;;;5.07;;
177;SDS011;77;48.792;9.032;2022-08-21T05:04:03;8.50;;;4.80;;
177;SDS011;77;48.792;9.032;2022-08-21T05:06:29;7.27;;;4.67;;
177;SDS011;77;48.792;9.032;2022-08-21T05:08:56;6.50;;;4.60;;
177;SDS011;77;48.792;9.032;2022-08-21T05:11:21;6.73;;;4.67;;
177;SDS011;77;48.792;9.032;2022-08-21T05:13:48;7.60;;;4.50;;
177;SDS011;77;48.792;9.032;2022-08-21T05:16:13;7.23;;;4.70;;
177;SDS011;77;48.792;9.032;2022-08-21T05:18:39;5.87;;;4.80;;
177;SDS011;77;48.792;9.032;2022-08-21T05:21:06;5.93;;;4.40;;
177;SDS011;77;48.792;9.032;2022-08-21T05:23:31;7.03;;;4.77;;
177;SDS011;77;48.792;9.032;2022-08-21T05:25:56;8.50;;;4.70;;
177;SDS011;77;48.792;9.032;2022-08-21T05:28:21;7.87;;;5.13;;
177;SDS011;77;48.792;9.032;2022-08-21T05:30:47;6.43;;;4.73;;
177;SDS011;77;48.792;9.032;2022-08-21T05:33:12;6.57;;;4.53;;
177;SDS011;77;48.792;9.032;2022-08-21T05:35:37;6.73;;;4.80;;
177;SDS011;77;48.792;9.032;2022-08-21T05:38:05;6.53;;;4.80;;
177;SDS011;77;48.792;9.032;2022-08-21T05:40:30;7.50;;;4.93;;
177;SDS011;77;48.792;9.032;2022-08-21T05:42:56;8.17;;;5.30;;
177;SDS011;77;48.792;9.032;2022-08-21T05:45:21;6.30;;;4.60;;
177;SDS011;77;48.792;9.032;2022-08-21T05:47:46;7.50;;;5.10;;
177;SDS011;77;48.792;9.032;2022-08-21T05:50:12;7.13;;;5.10;;
177;SDS011;77;48.792;9.032;2022-08-21T05:52:37;8.63;;;5.20;;
177;SDS011;77;48.792;9.032;2022-08-21T05:55:04;7.77;;;5.37;;
177;SDS011;77;48.792;9.032;2022-08-21T05:57:30;6.73;;;5.20;;
177;SDS011;77;48.792;9.032;2022-08-21T05:59:55;7.53;;;5.03;;
177;SDS011;77;48.792;9.032;2022-08-21T06:02:20;8.40;;;5.03;;
177;SDS011;77;48.792;9.032;2022-08-21T06:04:46;7.90;;;5.27;;
177;SDS011;77;48.792;9.032;2022-08-21T06:07:11;7.03;;;5.10;;
177;SDS011;77;48.792;9.032;2022-08-21T06:09:37;6.43;;;4.60;;
177;SDS011;77;48.792;9.032;2022-08-21T06:12:05;7.03;;;4.93;;
177;SDS011;77;48.792;9.032;2022-08-21T06:14:30;7.10;;;5.30;;
177;SDS011;77;48.792;9.032;2022-08-21T06:17:00;9.93;;;4.57;;
177;SDS011;77;48.792;9.032;2022-08-21T06:19:26;6.93;;;4.83;;
177;SDS011;77;48.792;9.032;2022-08-21T06:21:51;5.80;;;4.80;;
177;SDS011;77;48.792;9.032;2022-08-21T06:24:16;9.27;;;4.80;;
177;SDS011;77;48.792;9.032;2022-08-21T06:26:41;7.77;;;5.27;;
177;SDS011;77;48.792;9.032;2022-08-21T06:29:08;7.73;;;4.80;;
177;SDS011;77;48.792;9.032;2022-08-21T06:31:34;8.20;;;4.90;;
177;SDS011;77;48.792;9.032;2022-08-21T06:33:59;6.67;;;4.30;;
177;SDS011;77;48.792;9.032;2022-08-21T06:36:24;8.20;;;5.27;;
177;SDS011;77;48.792;9.032;2022-08-21T06:38:50;9.73;;;5.40;;
177;SDS011;77;48.792;9.032;2022-08-21T06:41:15;11.27;;;4.70;;
177;SDS011;77;48.792;9.032;2022-08-21T06:43:40;8.57;;;5.30;;
177;SDS011;77;48.792;9.032;2022-08-21T06:46:07;11.13;;;4.97;;
177;SDS011;77;48.792;9.032;2022-08-21T06:48:32;11.47;;;5.23;;
177;SDS011;77;48.792;9.032;2022-08-21T06:50:58;7.80;;;5.10;;
177;SDS011;77;48.792;9.032;2022-08-21T06:53:23;7.70;;;5.03;;
177;SDS011;77;48.792;9.032;2022-08-21T06:55:48;12.83;;;5.67;;
177;SDS011;77;48.792;9.032;2022-08-21T06:58:13;9.73;;;5.33;;
177;SDS011;77;48.792;9.032;2022-08-21T07:00:39;7.33;;;5.00;;
177;SDS011;77;48.792;9.032;2022-08-21T07:03:06;8.57;;;5.40;;
177;SDS011;77;48.792;9.032;2022-08-21T07:05:31;8.77;;;5.30;;
177;SDS011;77;48.792;9.032;2022-08-21T07:07:57;7.93;;;5.37;;
177;SDS011;77;48.792;9.032;2022-08-21T07:10:23;10.37;;;5.20;;
177;SDS011;77;48.792;9.032;2022-08-21T07:12:48;9.90;;;5.80;;
177;SDS011;77;48.792;9.032;2022-08-21T07:15:14;10.13;;;5.30;;
177;SDS011;77;48.792;9.032;2022-08-21T07:17:39;9.50;;;5.27;;
177;SDS011;77;48.792;9.032;2022-08-21T07:20:07;9.87;;;5.63;;
177;SDS011;77;48.792;9.032;2022-08-21T07:22:32;10.70;;;5.67;;
177;SDS011;77;48.792;9.032;2022-08-21T07:24:58;10.43;;;5.83;;
177;SDS011;77;48.792;9.032;2022-08-21T07:27:23;9.13;;;5.60;;
177;SDS011;77;48.792;9.032;2022-08-21T07:29:49;9.83;;;5.63;;
177;SDS011;77;48.792;9.032;2022-08-21T07:32:14;13.67;;;5.87;;
177;SDS011;77;48.792;9.032;2022-08-21T07:34:39;10.70;;;5.60;;
177;SDS011;77;48.792;9.032;2022-08-21T07:37:06;11.70;;;5.30;;
177;SDS011;77;48.792;9.032;2022-08-21T07:39:35;16.67;;;5.60;;
177;SDS011;77;48.792;9.032;2022-08-21T07:42:00;7.50;;;5.40;;
177;SDS011;77;48.792;9.032;2022-08-21T07:44:25;9.87;;;5.40;;
177;SDS011;77;48.792;9.032;2022-08-21T07:46:50;9.07;;;5.20;;
177;SDS011;77;48.792;9.032;2022-08-21T07:49:16;9.33;;;5.57;;
177;SDS011;77;48.792;9.032;2022-08-21T07:51:41;7.27;;;5.50;;
177;SDS011;77;48.792;9.032;2022-08-21T07:54:07;9.20;;;5.47;;
177;SDS011;77;48.792;9.032;2022-08-21T07:56:33;8.10;;;4.97;;
177;SDS011;77;48.792;9.032;2022-08-21T07:58:58;8.70;;;5.10;;
177;SDS011;77;48.792;9.032;2022-08-21T08:01:23;12.40;;;5.30;;
177;SDS011;77;48.792;9.032;2022-08-21T08:03:49;7.83;;;5.00;;
177;SDS011;77;48.792;9.032;2022-08-21T08:06:14;10.27;;;5.30;;
177;SDS011;77;48.792;9.032;2022-08-21T08:08:40;8.27;;;5.47;;
177;SDS011;77;48.792;9.032;2022-08-21T08:11:07;10.90;;;5.10;;
177;SDS011;77;48.792;9.032;2022-08-21T08:13:37;11.67;;;5.60;;
177;SDS011;77;48.792;9.032;2022-08-21T08:16:03;12.17;;;5.10;;
177;SDS011;77;48.792;9.032;2022-08-21T08:18:28;9.93;;;4.93;;
177;SDS011;77;48.792;9.032;2022-08-21T08:20:53;8.23;;;4.80;;
177;SDS011;77;48.792;9.032;2022-08-21T08:23:18;9.93;;;5.50;;
177;SDS011;77;48.792;9.032;2022-08-21T08:25:44;10.73;;;5.20;;
177;SDS011;77;48.792;9.032;2022-08-21T08:28:10;9.30;;;5.33;;
177;SDS011;77;48.792;9.032;2022-08-21T08:30:36;7.70;;;5.20;;
177;SDS011;77;48.792;9.032;2022-08-21T08:33:01;10.20;;;5.23;;
177;SDS011;77;48.792;9.032;2022-08-21T08:35:26;9.00;;;5.37;;
177;SDS011;77;48.792;9.032;2022-08-21T08:37:52;9.47;;;5.07;;
177;SDS011;77;48.792;9.032;2022-08-21T08:40:18;10.10;;;4.93;;
177;SDS011;77;48.792;9.032;2022-08-21T08:42:45;6.50;;;4.70;;
177;SDS011;77;48.792;9.032;2022-08-21T08:45:14;7.20;;;5.20;;
177;SDS011;77;48.792;9.032;2022-08-21T08:47:42;9.80;;;5.27;;
177;SDS011;77;48.792;9.032;2022-08-21T08:50:08;7.70;;;5.07;;
177;SDS011;77;48.792;9.032;2022-08-21T08:52:36;8.83;;;5.30;;
177;SDS011;77;48.792;9.032;2022-08-21T08:55:03;8.07;;;5.03;;
177;SDS011;77;48.792;9.032;2022-08-21T08:57:29;6.67;;;4.47;;
177;SDS011;77;48.792;9.032;2022-08-21T08:59:55;8.30;;;4.77;;
177;SDS011;77;48.792;9.032;2022-08-21T09:02:22;8.67;;;4.77;;
177;SDS011;77;48.792;9.032;2022-08-21T09:04:47;10.23;;;5.33;;
177;SDS011;77;48.792;9.032;2022-08-21T09:07:16;7.23;;;5.17;;
177;SDS011;77;48.792;9.032;2022-08-21T09:09:48;9.13;;;4.70;;
177;SDS011;77;48.792;9.032;2022-08-21T09:12:17;10.57;;;5.10;;
177;SDS011;77;48.792;9.032;2022-08-21T09:14:47;17.93;;;4.77;;
177;SDS011;77;48.792;9.032;2022-08-21T09:17:19;9.10;;;5.37;;
177;SDS011;77;48.792;9.032;2022-08-21T09:19:52;7.60;;;4.70;;
177;SDS011;77;48.792;9.032;2022-08-21T09:22:23;7.33;;;4.77;;
177;SDS011;77;48.792;9.032;2022-08-21T09:24:50;7.50;;;4.60;;
177;SDS011;77;48.792;9.032;2022-08-21T09:27:19;6.97;;;4.80;;
177;SDS011;77;48.792;9.032;2022-08-21T09:29:46;7.20;;;3.97;;
177;SDS011;77;48.792;9.032;2022-08-21T09:32:14;8.27;;;4.03;;
177;SDS011;77;48.792;9.032;2022-08-21T09:34:40;7.93;;;4.27;;
177;SDS011;77;48.792;9.032;2022-08-21T09:37:14;8.63;;;4.60;;
177;SDS011;77;48.792;9.032;2022-08-21T09:39:41;8.10;;;4.53;;
177;SDS011;77;48.792;9.032;2022-08-21T09:42:07;9.07;;;4.43;;
177;SDS011;77;48.792;9.032;2022-08-21T09:44:33;8.17;;;4.50;;
177;SDS011;77;48.792;9.032;2022-08-21T09:47:01;8.50;;;4.70;;
177;SDS011;77;48.792;9.032;2022-08-21T09:49:27;6.20;;;4.40;;
177;SDS011;77;48.792;9.032;2022-08-21T09:51:53;9.13;;;4.50;;
177;SDS011;77;48.792;9.032;2022-08-21T09:54:20;9.93;;;4.63;;
177;SDS011;77;48.792;9.032;2022-08-21T09:56:52;9.33;;;4.87;;
177;SDS011;77;48.792;9.032;2022-08-21T09:59:20;6.33;;;4.30;;
177;SDS011;77;48.792;9.032;2022-08-21T10:01:46;7.60;;;4.47;;
177;SDS011;77;48.792;9.032;2022-08-21T10:04:12;7.57;;;4.80;;
177;SDS011;77;48.792;9.032;2022-08-21T10:06:37;7.80;;;4.70;;
177;SDS011;77;48.792;9.032;2022-08-21T10:09:04;9.03;;;4.67;;
177;SDS011;77;48.792;9.032;2022-08-21T10:11:31;8.00;;;4.70;;
177;SDS011;77;48.792;9.032;2022-08-21T10:13:58;9.20;;;4.50;;
177;SDS011;77;48.792;9.032;2022-08-21T10:16:28;8.57;;;4.50;;
177;SDS011;77;48.792;9.032;2022-08-21T10:18:59;8.47;;;4.50;;
177;SDS011;77;48.792;9.032;2022-08-21T10:21:27;7.13;;;4.40;;
177;SDS011;77;48.792;9.032;2022-08-21T10:23:56;9.50;;;5.13;;
177;SDS011;77;48.792;9.032;2022-08-21T10:26:29;8.67;;;4.63;;
177;SDS011;77;48.792;9.032;2022-08-21T10:29:00;8.57;;;4.57;;
177;SDS011;77;48.792;9.032;2022-08-21T10:31:28;9.17;;;4.70;;
177;SDS011;77;48.792;9.032;2022-08-21T10:33:58;6.60;;;4.30;;
177;SDS011;77;48.792;9.032;2022-08-21T10:36:32;8.90;;;4.80;;
177;SDS011;77;48.792;9.032;2022-08-21T10:38:59;10.43;;;4.97;;
177;SDS011;77;48.792;9.032;2022-08-21T10:41:28;9.90;;;5.00;;
177;SDS011;77;48.792;9.032;2022-08-21T10:43:59;6.70;;;4.63;;
177;SDS011;77;48.792;9.032;2022-08-21T10:46:36;7.83;;;5.20;;
177;SDS011;77;48.792;9.032;2022-08-21T10:49:04;7.43;;;4.87;;
177;SDS011;77;48.792;9.032;2022-08-21T10:51:37;7.53;;;4.67;;
177;SDS011;77;48.792;9.032;2022-08-21T10:54:05;6.80;;;4.40;;
177;SDS011;77;48.792;9.032;2022-08-21T10:56:33;9.50;;;4.90;;
177;SDS011;77;48.792;9.032;2022-08-21T10:59:04;9.43;;;4.80;;
177;SDS011;77;48.792;9.032;2022-08-21T11:01:32;11.30;;;4.83;;
177;SDS011;77;48.792;9.032;2022-08-21T11:04:03;8.60;;;5.07;;
177;SDS011;77;48.792;9.032;2022-08-21T11:06:31;11.70;;;4.60;;
177;SDS011;77;48.792;9.032;2022-08-21T11:08:57;10.33;;;4.87;;
177;SDS011;77;48.792;9.032;2022-08-21T11:11:24;7.93;;;4.87;;
177;SDS011;77;48.792;9.032;2022-08-21T11:13:51;10.27;;;4.50;;
177;SDS011;77;48.792;9.032;2022-08-21T11:16:21;8.73;;;4.70;;
177;SDS011;77;48.792;9.032;2022-08-21T11:18:49;12.37;;;4.80;;
177;SDS011;77;48.792;9.032;2022-08-21T11:21:26;8.50;;;4.50;;
177;SDS011;77;48.792;9.032;2022-08-21T11:23:53;8.67;;;4.80;;
177;SDS011;77;48.792;9.032;2022-08-21T11:26:23;7.97;;;4.80;;
177;SDS011;77;48.792;9.032;2022-08-21T11:28:50;8.30;;;4.70;;
177;SDS011;77;48.792;9.032;2022-08-21T11:31:22;9.43;;;4.67;;
177;SDS011;77;48.792;9.032;2022-08-21T11:34:01;6.97;;;4.30;;
177;SDS011;77;48.792;9.032;2022-08-21T11:36:32;8.50;;;5.00;;
177;SDS011;77;48.792;9.032;2022-08-21T11:39:02;7.70;;;4.70;;
177;SDS011;77;48.792;9.032;2022-08-21T11:41:30;7.63;;;4.63;;
177;SDS011;77;48.792;9.032;2022-08-21T11:44:01;10.50;;;4.30;;
177;SDS011;77;48.792;9.032;2022-08-21T11:46:31;7.57;;;4.53;;
177;SDS011;77;48.792;9.032;2022-08-21T11:49:02;8.03;;;4.67;;
177;SDS011;77;48.792;9.032;2022-08-21T11:51:32;6.50;;;4.57;;
177;SDS011;77;48.792;9.032;2022-08-21T11:54:00;10.80;;;4.50;;
177;SDS011;77;48.792;9.032;2022-08-21T11:56:29;8.70;;;4.73;;
177;SDS011;77;48.792;9.032;2022-08-21T11:58:58;8.03;;;4.60;;
177;SDS011;77;48.792;9.032;2022-08-21T12:01:25;8.43;;;4.80;;
177;SDS011;77;48.792;9.032;2022-08-21T12:03:55;8.30;;;4.80;;
177;SDS011;77;48.792;9.032;2022-08-21T12:06:28;8.83;;;5.03;;
177;SDS011;77;48.792;9.032;2022-08-21T12:08:57;7.53;;;4.50;;
177;SDS011;77;48.792;9.032;2022-08-21T12:11:24;7.60;;;4.27;;
177;SDS011;77;48.792;9.032;2022-08-21T12:13:53;8.23;;;4.90;;
177;SDS011;77;48.792;9.032;2022-08-21T12:16:28;9.03;;;4.57;;
177;SDS011;77;48.792;9.032;2022-08-21T12:19:03;8.37;;;4.90;;
177;SDS011;77;48.792;9.032;2022-08-21T12:21:28;12.13;;;5.00;;
177;SDS011;77;48.792;9.032;2022-08-21T12:24:01;7.50;;;4.70;;
177;SDS011;77;48.792;9.032;2022-08-21T12:26:29;6.20;;;4.50;;
177;SDS011;77;48.792;9.032;2022-08-21T12:29:10;7.43;;;4.80;;
177;SDS011;77;48.792;9.032;2022-08-21T12:31:36;7.60;;;5.43;;
177;SDS011;77;48.792;9.032;2022-08-21T12:34:13;7.67;;;4.50;;
177;SDS011;77;48.792;9.032;2022-08-21T12:36:41;9.10;;;4.87;;
177;SDS011;77;48.792;9.032;2022-08-21T12:39:13;8.80;;;4.40;;
177;SDS011;77;48.792;9.032;2022-08-21T12:41:42;8.93;;;4.20;;
177;SDS011;77;48.792;9.032;2022-08-21T12:44:09;9.00;;;5.30;;
177;SDS011;77;48.792;9.032;2022-08-21T12:46:36;7.57;;;4.90;;
177;SDS011;77;48.792;9.032;2022-08-21T12:49:03;8.70;;;5.40;;
177;SDS011;77;48.792;9.032;2022-08-21T12:51:33;7.50;;;4.90;;
177;SDS011;77;48.792;9.032;2022-08-21T12:54:01;10.00;;;6.60;;
177;SDS011;77;48.792;9.032;2022-08-21T12:56:27;8.80;;;6.07;;
177;SDS011;77;48.792;9.032;2022-08-21T12:58:54;9.60;;;6.10;;
177;SDS011;77;48.792;9.032;2022-08-21T13:01:21;8.50;;;5.17;;
177;SDS011;77;48.792;9.032;2022-08-21T13:03:47;8.10;;;4.50;;
177;SDS011;77;48.792;9.032;2022-08-21T13:06:13;6.80;;;4.73;;
177;SDS011;77;48.792;9.032;2022-08-21T13:08:40;7.83;;;4.60;;
177;SDS011;77;48.792;9.032;2022-08-21T13:11:07;9.40;;;5.40;;
177;SDS011;77;48.792;9.032;2022-08-21T13:13:34;5.93;;;4.40;;
177;SDS011;77;48.792;9.032;2022-08-21T13:16:01;8.70;;;4.70;;
177;SDS011;77;48.792;9.032;2022-08-21T13:18:28;10.07;;;4.67;;
177;SDS011;77;48.792;9.032;2022-08-21T13:21:02;7.20;;;4.20;;
177;SDS011;77;48.792;9.032;2022-08-21T13:23:29;7.07;;;4.33;;
177;SDS011;77;48.792;9.032;2022-08-21T13:25:56;7.80;;;5.00;;
177;SDS011;77;48.792;9.032;2022-08-21T13:28:21;9.43;;;4.90;;
177;SDS011;77;48.792;9.032;2022-08-21T13:30:48;7.97;;;4.57;;
177;SDS011;77;48.792;9.032;2022-08-21T13:33:14;11.40;;;4.70;;
177;SDS011;77;48.792;9.032;2022-08-21T13:35:47;10.10;;;4.40;;
177;SDS011;77;48.792;9.032;2022-08-21T13:38:13;8.07;;;4.67;;
177;SDS011;77;48.792;9.032;2022-08-21T13:40:41;6.93;;;4.50;;
177;SDS011;77;48.792;9.032;2022-08-21T13:43:11;6.40;;;4.50;;
177;SDS011;77;48.792;9.032;2022-08-21T13:45:42;9.33;;;4.77;;
177;SDS011;77;48.792;9.032;2022-08-21T13:48:08;7.90;;;4.20;;
177;SDS011;77;48.792;9.032;2022-08-21T13:50:33;6.67;;;4.50;;
177;SDS011;77;48.792;9.032;2022-08-21T13:53:01;6.23;;;3.90;;
177;SDS011;77;48.792;9.032;2022-08-21T13:55:33;8.13;;;4.60;;
177;SDS011;77;48.792;9.032;2022-08-21T13:58:00;7.00;;;4.37;;
177;SDS011;77;48.792;9.032;2022-08-21T14:00:27;7.37;;;4.30;;
177;SDS011;77;48.792;9.032;2022-08-21T14:02:53;8.53;;;4.20;;
177;SDS011;77;48.792;9.032;2022-08-21T14:05:19;11.00;;;4.40;;
177;SDS011;77;48.792;9.032;2022-08-21T14:07:45;7.27;;;4.80;;
177;SDS011;77;48.792;9.032;2022-08-21T14:10:12;6.77;;;4.27;;
177;SDS011;77;48.792;9.032;2022-08-21T14:12:40;9.83;;;4.70;;
177;SDS011;77;48.792;9.032;2022-08-21T14:15:07;6.77;;;4.03;;
177;SDS011;77;48.792;9.032;2022-08-21T14:17:35;5.40;;;4.17;;
177;SDS011;77;48.792;9.032;2022-08-21T14:20:03;6.60;;;4.13;;
177;SDS011;77;48.792;9.032;2022-08-21T14:22:30;7.20;;;3.90;;
177;SDS011;77;48.792;9.032;2022-08-21T14:25:02;7.00;;;3.90;;
177;SDS011;77;48.792;9.032;2022-08-21T14:27:29;10.33;;;3.97;;
177;SDS011;77;48.792;9.032;2022-08-21T14:29:57;7.00;;;4.50;;
177;SDS011;77;48.792;9.032;2022-08-21T14:32:24;7.20;;;4.07;;
177;SDS011;77;48.792;9.032;2022-08-21T14:34:56;7.07;;;4.40;;
177;SDS011;77;48.792;9.032;2022-08-21T14:37:21;6.43;;;4.10;;
177;SDS011;77;48.792;9.032;2022-08-21T14:39:47;7.33;;;4.50;;
177;SDS011;77;48.792;9.032;2022-08-21T14:42:12;5.40;;;3.97;;
177;SDS011;77;48.792;9.032;2022-08-21T14:44:37;6.00;;;4.40;;
177;SDS011;77;48.792;9.032;2022-08-21T14:47:03;7.40;;;3.93;;
177;SDS011;77;48.792;9.032;2022-08-21T14:49:28;6.43;;;4.00;;
177;SDS011;77;48.792;9.032;2022-08-21T14:51:55;7.70;;;4.17;;
177;SDS011;77;48.792;9.032;2022-08-21T14:54:21;5.00;;;3.83;;
177;SDS011;77;48.792;9.032;2022-08-21T14:56:46;6.73;;;4.10;;
177;SDS011;77;48.792;9.032;2022-08-21T14:59:11;6.57;;;4.40;;
177;SDS011;77;48.792;9.032;2022-08-21T15:01:37;4.70;;;3.70;;
177;SDS011;77;48.792;9.032;2022-08-21T15:04:03;6.83;;;4.07;;
177;SDS011;77;48.792;9.032;2022-08-21T15:06:28;6.37;;;4.20;;
177;SDS011;77;48.792;9.032;2022-08-21T15:08:55;6.60;;;4.30;;
177;SDS011;77;48.792;9.032;2022-08-21T15:11:21;5.10;;;3.47;;
177;SDS011;77;48.792;9.032;2022-08-21T15:13:47;6.50;;;4.20;;
177;SDS011;77;48.792;9.032;2022-08-21T15:16:15;7.00;;;4.27;;
177;SDS011;77;48.792;9.032;2022-08-21T15:18:40;7.00;;;3.90;;
177;SDS011;77;48.792;9.032;2022-08-21T15:21:06;5.90;;;3.90;;
177;SDS011;77;48.792;9.032;2022-08-21T15:23:31;6.57;;;3.93;;
177;SDS011;77;48.792;9.032;2022-08-21T15:25:58;6.70;;;3.90;;
177;SDS011;77;48.792;9.032;2022-08-21T15:28:23;4.77;;;3.73;;
177;SDS011;77;48.792;9.032;2022-08-21T15:30:49;6.10;;;4.27;;
177;SDS011;77;48.792;9.032;2022-08-21T15:33:14;5.37;;;3.90;;
177;SDS011;77;48.792;9.032;2022-08-21T15:35:39;6.33;;;4.17;;
177;SDS011;77;48.792;9.032;2022-08-21T15:38:05;4.80;;;3.60;;
177;SDS011;77;48.792;9.032;2022-08-21T15:40:30;6.93;;;3.80;;
177;SDS011;77;48.792;9.032;2022-08-21T15:42:58;4.90;;;3.83;;
177;SDS011;77;48.792;9.032;2022-08-21T15:45:23;5.07;;;3.60;;
177;SDS011;77;48.792;9.032;2022-08-21T15:47:49;5.90;;;3.90;;
177;SDS011;77;48.792;9.032;2022-08-21T15:50:15;7.30;;;3.93;;
177;SDS011;77;48.792;9.032;2022-08-21T15:52:40;6.83;;;4.13;;
177;SDS011;77;48.792;9.032;2022-08-21T15:55:06;5.23;;;3.73;;